createdAt,value
2023-04-08T00:00:34.954Z,31.51
2023-04-08T00:02:40.818Z,31.58
2023-04-08T00:04:46.191Z,31.55
2023-04-08T00:06:51.294Z,31.6
2023-04-08T00:08:56.667Z,31.62
2023-04-08T00:11:01.747Z,31.64
2023-04-08T00:13:06.794Z,31.63
2023-04-08T00:15:11.883Z,31.63
2023-04-08T00:17:16.920Z,31.6
2023-04-08T00:19:22.067Z,31.63
2023-04-08T00:21:27.152Z,31.64
2023-04-08T00:23:32.311Z,31.67
2023-04-08T00:25:37.452Z,31.67
2023-04-08T00:27:42.515Z,31.69
2023-04-08T00:29:47.559Z,31.71
2023-04-08T00:31:52.626Z,31.77
2023-04-08T00:33:57.721Z,31.75
2023-04-08T00:36:02.976Z,31.78
2023-04-08T00:38:08.121Z,31.78
2023-04-08T00:40:13.224Z,31.79
2023-04-08T00:42:18.317Z,31.78
2023-04-08T00:44:23.401Z,31.8
2023-04-08T00:46:28.611Z,31.84
2023-04-08T00:48:33.757Z,31.86
2023-04-08T00:50:38.884Z,31.88
2023-04-08T00:52:44.030Z,31.88
2023-04-08T00:54:49.099Z,31.86
2023-04-08T00:56:54.412Z,31.88
2023-04-08T00:58:59.418Z,31.88
2023-04-08T01:01:04.624Z,31.94
2023-04-08T01:03:10.526Z,31.94
2023-04-08T01:05:15.716Z,31.97
2023-04-08T01:07:20.789Z,31.96
2023-04-08T01:09:25.807Z,31.99
2023-04-08T01:11:30.834Z,31.98
2023-04-08T01:13:35.865Z,31.95
2023-04-08T01:15:41.071Z,32
2023-04-08T01:17:46.454Z,32.01
2023-04-08T01:19:51.523Z,32.02
2023-04-08T01:21:56.586Z,32.06
2023-04-08T01:24:01.620Z,32.09
2023-04-08T01:26:06.763Z,32.14
2023-04-08T01:28:11.828Z,32.17
2023-04-08T01:30:16.965Z,32.18
2023-04-08T01:32:22.062Z,32.17
2023-04-08T01:34:27.169Z,32.23
2023-04-08T01:36:32.214Z,32.26
2023-04-08T01:38:37.260Z,32.3
2023-04-08T01:40:42.313Z,32.36
2023-04-08T01:42:47.321Z,32.38
2023-04-08T01:44:52.386Z,32.37
2023-04-08T01:46:57.681Z,32.39
2023-04-08T01:49:02.764Z,32.45
2023-04-08T01:51:07.924Z,32.46
2023-04-08T01:53:12.958Z,32.52
2023-04-08T01:55:18.041Z,32.43
2023-04-08T01:57:23.114Z,32.41
2023-04-08T01:59:28.120Z,32.42
2023-04-08T02:01:33.585Z,32.37
2023-04-08T02:03:39.130Z,32.29
2023-04-08T02:05:44.257Z,32.39
2023-04-08T02:07:49.386Z,32.46
2023-04-08T02:09:54.477Z,32.33
2023-04-08T02:11:59.538Z,32.24
2023-04-08T02:14:04.570Z,32.16
2023-04-08T02:16:09.847Z,32.15
2023-04-08T02:18:15.276Z,32.08
2023-04-08T02:20:20.420Z,31.99
2023-04-08T02:22:25.497Z,31.91
2023-04-08T02:24:30.666Z,31.88
2023-04-08T02:26:35.744Z,31.81
2023-04-08T02:28:40.912Z,31.72
2023-04-08T02:30:46.018Z,31.64
2023-04-08T02:32:51.220Z,31.62
2023-04-08T02:34:56.365Z,31.54
2023-04-08T02:37:01.407Z,31.48
2023-04-08T02:39:06.574Z,31.41
2023-04-08T02:41:11.655Z,31.39
2023-04-08T02:43:16.728Z,31.34
2023-04-08T02:45:21.737Z,31.33
2023-04-08T02:47:26.931Z,31.29
2023-04-08T02:49:32.011Z,31.22
2023-04-08T02:51:37.069Z,31.2
2023-04-08T02:53:42.197Z,31.18
2023-04-08T02:55:47.256Z,31.18
2023-04-08T02:57:52.379Z,31.19
2023-04-08T02:59:57.467Z,31.21
2023-04-08T03:02:03.092Z,31.16
2023-04-08T03:04:32.304Z,31.2
2023-04-08T03:06:37.334Z,31.11
2023-04-08T03:08:42.400Z,31.07
2023-04-08T03:10:47.452Z,31.08
2023-04-08T03:12:52.503Z,31.07
2023-04-08T03:14:57.584Z,31.07
2023-04-08T03:17:02.998Z,31.05
2023-04-08T03:19:08.162Z,31.05
2023-04-08T03:21:13.200Z,30.98
2023-04-08T03:23:18.284Z,30.97
2023-04-08T03:25:23.315Z,31.04
2023-04-08T03:27:28.364Z,30.98
2023-04-08T03:29:34.140Z,31.03
2023-04-08T03:31:39.375Z,30.99
2023-04-08T03:33:44.503Z,30.98
2023-04-08T03:35:49.697Z,30.92
2023-04-08T03:37:54.776Z,30.94
2023-04-08T03:39:59.823Z,30.93
2023-04-08T03:42:04.841Z,30.92
2023-04-08T03:44:09.974Z,30.92
2023-04-08T03:46:15.155Z,30.85
2023-04-08T03:48:20.307Z,30.82
2023-04-08T03:50:25.473Z,30.78
2023-04-08T03:52:30.493Z,30.69
2023-04-08T03:54:35.532Z,30.66
2023-04-08T03:56:40.552Z,30.64
2023-04-08T03:58:45.601Z,30.53
2023-04-08T04:00:50.638Z,30.51
2023-04-08T04:02:55.995Z,30.46
2023-04-08T04:05:01.790Z,30.4
2023-04-08T04:07:07.058Z,30.33
2023-04-08T04:09:12.111Z,30.28
2023-04-08T04:11:17.183Z,30.24
2023-04-08T04:13:22.218Z,30.29
2023-04-08T04:15:27.350Z,30.3
2023-04-08T04:17:32.538Z,30.31
2023-04-08T04:19:37.586Z,30.31
2023-04-08T04:21:42.754Z,30.37
2023-04-08T04:23:47.845Z,30.42
2023-04-08T04:25:52.845Z,30.47
2023-04-08T04:27:57.883Z,30.46
2023-04-08T04:30:02.946Z,30.5
2023-04-08T04:32:07.950Z,30.53
2023-04-08T04:34:12.987Z,30.52
2023-04-08T04:36:18.014Z,30.57
2023-04-08T04:38:23.044Z,30.57
2023-04-08T04:40:28.176Z,30.62
2023-04-08T04:42:33.215Z,30.59
2023-04-08T04:44:38.240Z,30.52
2023-04-08T04:46:43.469Z,30.52
2023-04-08T04:48:48.619Z,30.57
2023-04-08T04:50:53.788Z,30.62
2023-04-08T04:52:58.822Z,30.57
2023-04-08T04:55:03.854Z,30.5
2023-04-08T04:57:09.028Z,30.4
2023-04-08T04:59:14.069Z,30.42
2023-04-08T05:01:19.272Z,30.35
2023-04-08T05:03:24.604Z,30.34
2023-04-08T05:05:29.874Z,30.32
2023-04-08T05:07:34.899Z,30.35
2023-04-08T05:09:39.929Z,30.34
2023-04-08T05:11:44.993Z,30.35
2023-04-08T05:13:50.027Z,30.32
2023-04-08T05:15:55.293Z,30.26
2023-04-08T05:18:00.514Z,30.25
2023-04-08T05:20:05.570Z,30.24
2023-04-08T05:22:10.639Z,30.24
2023-04-08T05:24:15.713Z,30.16
2023-04-08T05:26:22.737Z,30.17
2023-04-08T05:28:27.820Z,30.22
2023-04-08T05:30:32.894Z,30.36
2023-04-08T05:32:38.215Z,31.45
2023-04-08T05:34:43.317Z,31.62
2023-04-08T05:36:48.418Z,31.42
2023-04-08T05:38:54.044Z,31.6
2023-04-08T05:40:59.076Z,32.24
2023-04-08T05:43:04.141Z,32.92
2023-04-08T05:45:09.184Z,33.29
2023-04-08T05:47:14.347Z,32.74
2023-04-08T05:49:19.443Z,32.46
2023-04-08T05:51:24.470Z,32.66
2023-04-08T05:53:29.500Z,32.42
2023-04-08T05:55:34.538Z,32.37
2023-04-08T05:57:39.569Z,32.3
2023-04-08T05:59:44.633Z,32.79
2023-04-08T06:01:49.976Z,32.95
2023-04-08T06:03:55.870Z,32.32
2023-04-08T06:06:01.122Z,32.31
2023-04-08T06:08:06.167Z,32.52
2023-04-08T06:10:11.230Z,32.72
2023-04-08T06:12:16.410Z,32.51
2023-04-08T06:14:21.514Z,32.51
2023-04-08T06:16:27.210Z,32.27
2023-04-08T06:18:32.284Z,32.37
2023-04-08T06:20:37.525Z,32.3
2023-04-08T06:22:42.562Z,32.4
2023-04-08T06:24:47.623Z,32.4
2023-04-08T06:26:52.690Z,31.96
2023-04-08T06:28:57.757Z,32.43
2023-04-08T06:31:02.993Z,32.38
2023-04-08T06:33:08.104Z,32.19
2023-04-08T06:35:13.139Z,32.27
2023-04-08T06:37:18.102Z,32.29
2023-04-08T06:39:23.089Z,32.14
2023-04-08T06:41:28.128Z,32.35
2023-04-08T06:43:33.164Z,32.29
2023-04-08T06:45:38.365Z,32.36
2023-04-08T06:47:43.606Z,32.39
2023-04-08T06:49:48.666Z,32.39
2023-04-08T06:51:53.681Z,32.5
2023-04-08T06:53:58.755Z,32.6
2023-04-08T06:56:04.058Z,32.6
2023-04-08T06:58:09.087Z,32.64
2023-04-08T07:00:14.371Z,32.64
2023-04-08T07:02:19.610Z,32.72
2023-04-08T07:04:24.837Z,32.69
2023-04-08T07:06:29.963Z,32.67
2023-04-08T07:08:35.203Z,32.68
2023-04-08T07:10:40.247Z,32.7
2023-04-08T07:12:45.332Z,32.67
2023-04-08T07:14:50.450Z,32.74
2023-04-08T07:16:55.703Z,32.62
2023-04-08T07:19:00.784Z,32.46
2023-04-08T07:21:05.868Z,32.62
2023-04-08T07:23:10.920Z,32.55
2023-04-08T07:25:16.019Z,32.58
2023-04-08T07:27:21.071Z,32.59
2023-04-08T07:29:26.194Z,32.61
2023-04-08T07:31:31.433Z,32.67
2023-04-08T07:33:36.504Z,32.74
2023-04-08T07:35:41.700Z,32.77
2023-04-08T07:37:46.758Z,32.59
2023-04-08T07:39:51.773Z,33.35
2023-04-08T07:41:56.772Z,33.17
2023-04-08T07:44:01.832Z,32.89
2023-04-08T07:46:07.080Z,32.69
2023-04-08T07:48:12.372Z,32.49
2023-04-08T07:50:17.511Z,32.3
2023-04-08T07:52:22.587Z,32.18
2023-04-08T07:54:27.612Z,32.06
2023-04-08T07:56:32.846Z,31.95
2023-04-08T07:58:38.083Z,31.93
2023-04-08T08:00:43.222Z,31.84
2023-04-08T08:02:48.553Z,31.82
2023-04-08T08:04:53.840Z,31.37
2023-04-08T08:06:59.024Z,31.37
2023-04-08T08:09:04.151Z,31.37
2023-04-08T08:11:09.182Z,31.54
2023-04-08T08:13:14.224Z,31.64
2023-04-08T08:15:19.244Z,31.72
2023-04-08T08:17:25.407Z,31.7
2023-04-08T08:19:31.566Z,31.52
2023-04-08T08:21:36.617Z,31.64
2023-04-08T08:23:41.741Z,31.62
2023-04-08T08:25:46.818Z,31.62
2023-04-08T08:27:51.847Z,31.63
2023-04-08T08:29:56.863Z,31.6
2023-04-08T08:32:01.899Z,31.59
2023-04-08T08:34:06.939Z,31.55
2023-04-08T08:36:12.237Z,31.49
2023-04-08T08:38:17.304Z,31.47
2023-04-08T08:40:22.395Z,31.43
2023-04-08T08:42:27.464Z,31.43
2023-04-08T08:44:32.515Z,31.42
2023-04-08T08:46:37.803Z,31.41
2023-04-08T08:48:42.872Z,31.42
2023-04-08T08:50:47.921Z,31.42
2023-04-08T08:52:53.029Z,31.44
2023-04-08T08:54:58.092Z,31.41
2023-04-08T08:57:03.210Z,31.43
2023-04-08T08:59:08.257Z,31.44
2023-04-08T09:01:13.307Z,31.45
2023-04-08T09:03:19.823Z,31.44
2023-04-08T09:05:25.407Z,31.44
2023-04-08T09:07:30.515Z,31.45
2023-04-08T09:09:35.574Z,31.45
2023-04-08T09:11:40.743Z,31.44
2023-04-08T09:13:45.839Z,31.43
2023-04-08T09:15:50.988Z,31.43
2023-04-08T09:17:56.248Z,31.42
2023-04-08T09:20:01.352Z,31.43
2023-04-08T09:22:06.466Z,31.41
2023-04-08T09:24:11.558Z,31.41
2023-04-08T09:26:16.754Z,31.39
2023-04-08T09:28:21.848Z,31.36
2023-04-08T09:30:27.104Z,31.42
2023-04-08T09:32:32.311Z,31.4
2023-04-08T09:34:37.344Z,31.41
2023-04-08T09:36:42.496Z,31.41
2023-04-08T09:38:47.568Z,31.41
2023-04-08T09:40:52.606Z,31.41
2023-04-08T09:42:57.674Z,31.4
2023-04-08T09:45:02.690Z,31.49
2023-04-08T09:47:07.787Z,31.42
2023-04-08T09:49:12.833Z,31.37
2023-04-08T09:51:17.868Z,31.37
2023-04-08T09:53:25.590Z,31.37
2023-04-08T09:55:30.605Z,31.37
2023-04-08T09:57:35.647Z,31.38
2023-04-08T09:59:40.753Z,31.37
2023-04-08T10:01:46.079Z,31.38
2023-04-08T10:03:52.706Z,31.41
2023-04-08T10:05:58.061Z,31.41
2023-04-08T10:08:03.127Z,31.41
2023-04-08T10:10:08.194Z,31.44
2023-04-08T10:12:13.224Z,31.43
2023-04-08T10:14:18.324Z,31.45
2023-04-08T10:16:23.690Z,31.49
2023-04-08T10:18:28.854Z,31.57
2023-04-08T10:20:33.933Z,31.49
2023-04-08T10:22:39.074Z,31.58
2023-04-08T10:24:44.164Z,31.49
2023-04-08T10:26:49.157Z,31.45
2023-04-08T10:28:54.348Z,31.52
2023-04-08T10:30:59.411Z,31.38
2023-04-08T10:33:04.696Z,31.27
2023-04-08T10:35:09.804Z,31.33
2023-04-08T10:37:14.857Z,31.47
2023-04-08T10:39:19.861Z,31.33
2023-04-08T10:41:24.953Z,31.33
2023-04-08T10:43:29.956Z,31.28
2023-04-08T10:45:35.089Z,31.09
2023-04-08T10:47:40.336Z,31.17
2023-04-08T10:49:45.436Z,30.42
2023-04-08T10:51:50.506Z,30.96
2023-04-08T10:53:55.692Z,31.02
2023-04-08T10:56:00.725Z,30.81
2023-04-08T10:58:05.746Z,30.95
2023-04-08T11:00:10.854Z,30.86
2023-04-08T11:02:16.800Z,30.96
2023-04-08T11:04:22.515Z,31.1
2023-04-08T11:06:27.659Z,31.06
2023-04-08T11:08:32.708Z,31.07
2023-04-08T11:10:37.776Z,31.08
2023-04-08T11:12:42.870Z,31.04
2023-04-08T11:14:50.716Z,30.88
2023-04-08T11:16:55.863Z,30.85
2023-04-08T11:19:00.978Z,30.77
2023-04-08T11:21:06.056Z,30.91
2023-04-08T11:23:11.086Z,30.66
2023-04-08T11:25:16.145Z,30.67
2023-04-08T11:27:21.224Z,30.73
2023-04-08T11:29:26.310Z,30.71
2023-04-08T11:31:31.521Z,30.67
2023-04-08T11:33:36.573Z,30.67
2023-04-08T11:35:41.876Z,30.7
2023-04-08T11:37:47.059Z,30.69
2023-04-08T11:39:52.137Z,30.67
2023-04-08T11:41:57.187Z,30.67
2023-04-08T11:44:02.217Z,30.62
2023-04-08T11:46:07.430Z,30.62
2023-04-08T11:48:12.699Z,30.57
2023-04-08T11:50:17.862Z,30.62
2023-04-08T11:52:22.978Z,30.61
2023-04-08T11:54:28.130Z,30.62
2023-04-08T11:56:33.265Z,30.6
2023-04-08T11:58:38.353Z,30.56
2023-04-08T12:00:43.426Z,30.5
2023-04-08T12:02:48.925Z,30.55
2023-04-08T12:04:54.282Z,30.54
2023-04-08T12:07:00.934Z,30.53
2023-04-08T12:09:06.046Z,30.57
2023-04-08T12:11:22.002Z,30.61
2023-04-08T12:13:27.064Z,30.65
2023-04-08T12:15:32.116Z,30.65
2023-04-08T12:17:37.417Z,30.63
2023-04-08T12:19:42.494Z,30.62
2023-04-08T12:21:47.613Z,30.57
2023-04-08T12:23:53.672Z,30.56
2023-04-08T12:25:58.835Z,30.56
2023-04-08T12:28:03.962Z,30.53
2023-04-08T12:30:09.235Z,30.76
2023-04-08T12:32:14.344Z,30.88
2023-04-08T12:34:19.427Z,31.13
2023-04-08T12:36:24.914Z,31.1
2023-04-08T12:38:30.061Z,30.32
2023-04-08T12:40:35.195Z,29.77
2023-04-08T12:42:40.314Z,29.57
2023-04-08T12:44:45.386Z,29.32
2023-04-08T12:46:50.673Z,29.12
2023-04-08T12:49:07.503Z,29.39
2023-04-08T12:51:12.843Z,28.96
2023-04-08T12:53:17.961Z,28.38
2023-04-08T12:55:23.082Z,27.73
2023-04-08T12:57:28.199Z,27.99
2023-04-08T12:59:33.267Z,27.2
2023-04-08T13:01:38.695Z,27.46
2023-04-08T13:03:47.008Z,27.41
2023-04-08T13:05:52.231Z,27.67
2023-04-08T13:07:57.376Z,27.52
2023-04-08T13:10:02.657Z,27.51
2023-04-08T13:12:07.699Z,28.04
2023-04-08T13:14:12.803Z,27.67
2023-04-08T13:16:18.065Z,27.75
2023-04-08T13:18:23.239Z,27.43
2023-04-08T13:20:28.643Z,27.74
2023-04-08T13:22:33.705Z,27.39
2023-04-08T13:24:38.948Z,27.54
2023-04-08T13:26:43.987Z,32.95
2023-04-08T13:29:00.285Z,33.25
2023-04-08T13:31:05.730Z,33.1
2023-04-08T13:33:10.896Z,34.08
2023-04-08T13:35:15.934Z,34.39
2023-04-08T13:37:20.996Z,34.57
2023-04-08T13:39:26.080Z,34.43
2023-04-08T13:41:31.165Z,34.5
2023-04-08T13:43:36.307Z,34.55
2023-04-08T13:46:42.628Z,34.53
2023-04-08T13:48:47.853Z,34.36
2023-04-08T13:50:52.990Z,34.13
2023-04-08T13:52:58.009Z,34.29
2023-04-08T13:55:03.108Z,33.93
2023-04-08T13:57:08.196Z,34.12
2023-04-08T13:59:13.275Z,33.61
2023-04-08T14:01:18.521Z,34.29
2023-04-08T14:03:23.877Z,34.35
2023-04-08T14:05:29.027Z,33.85
2023-04-08T14:07:34.092Z,33.78
2023-04-08T14:09:39.235Z,33.22
2023-04-08T14:11:44.264Z,33.81
2023-04-08T14:13:49.412Z,33.05
2023-04-08T14:15:54.604Z,33.12
2023-04-08T14:17:59.811Z,33.24
2023-04-08T14:20:04.897Z,33.19
2023-04-08T14:22:09.977Z,32.61
2023-04-08T14:24:15.152Z,32.06
2023-04-08T14:26:20.321Z,31.63
2023-04-08T14:28:25.397Z,32.02
2023-04-08T14:30:30.701Z,31.24
2023-04-08T14:32:35.992Z,32.08
2023-04-08T14:34:41.240Z,31.93
2023-04-08T14:36:46.286Z,30.88
2023-04-08T14:38:51.923Z,30.85
2023-04-08T14:40:57.150Z,31.16
2023-04-08T14:43:02.117Z,31.01
2023-04-08T14:45:07.134Z,31
2023-04-08T14:47:12.225Z,29.95
2023-04-08T14:49:17.363Z,30.39
2023-04-08T14:51:22.405Z,31.13
2023-04-08T14:53:27.443Z,31.38
2023-04-08T14:55:32.527Z,31.73
2023-04-08T14:57:37.555Z,32.1
2023-04-08T14:59:42.623Z,32.39
2023-04-08T15:01:47.886Z,32.59
2023-04-08T15:03:53.370Z,32.65
2023-04-08T15:05:58.589Z,32.93
2023-04-08T15:08:03.659Z,32.8
2023-04-08T15:10:08.750Z,33.18
2023-04-08T15:12:16.050Z,33.11
2023-04-08T15:14:21.133Z,32.91
2023-04-08T15:16:26.545Z,31.35
2023-04-08T15:18:31.644Z,31.88
2023-04-08T15:20:36.681Z,31.7
2023-04-08T15:22:41.736Z,31.92
2023-04-08T15:24:49.304Z,31.99
2023-04-08T15:26:54.386Z,32.27
2023-04-08T15:28:59.444Z,33.08
2023-04-08T15:31:04.825Z,34.49
2023-04-08T15:33:10.029Z,35.22
2023-04-08T15:35:15.101Z,36.05
2023-04-08T15:37:20.147Z,36.37
2023-04-08T15:39:25.271Z,36.81
2023-04-08T15:41:30.346Z,37.1
2023-04-08T15:43:35.380Z,37.38
2023-04-08T15:45:40.431Z,37.63
2023-04-08T15:47:45.651Z,37.72
2023-04-08T15:49:50.728Z,36.94
2023-04-08T15:51:55.789Z,37.34
2023-04-08T15:54:00.857Z,37.31
2023-04-08T15:56:06.007Z,37.33
2023-04-08T15:58:11.024Z,37.26
2023-04-08T16:00:18.915Z,36.87
2023-04-08T16:02:24.676Z,36.86
2023-04-08T16:04:30.185Z,36.88
2023-04-08T16:06:35.393Z,36.87
2023-04-08T16:08:40.538Z,36.7
2023-04-08T16:10:45.638Z,36.58
2023-04-08T16:12:50.707Z,36.46
2023-04-08T16:14:55.847Z,36.43
2023-04-08T16:17:00.874Z,36.36
2023-04-08T16:19:05.923Z,36.08
2023-04-08T16:21:11.034Z,35.9
2023-04-08T16:23:16.082Z,35.9
2023-04-08T16:25:21.113Z,36.16
2023-04-08T16:27:26.158Z,36.22
2023-04-08T16:29:31.177Z,36.13
2023-04-08T16:31:36.253Z,36.04
2023-04-08T16:33:41.297Z,35.92
2023-04-08T16:35:46.665Z,35.88
2023-04-08T16:37:51.712Z,35.91
2023-04-08T16:39:56.882Z,35.95
2023-04-08T16:42:02.027Z,35.76
2023-04-08T16:44:07.435Z,35.87
2023-04-08T16:46:12.740Z,35.64
2023-04-08T16:48:18.046Z,35.66
2023-04-08T16:50:23.117Z,35.67
2023-04-08T16:52:28.177Z,35.61
2023-04-08T16:54:33.239Z,35.61
2023-04-08T16:56:38.294Z,35.5
2023-04-08T16:58:43.354Z,35.54
2023-04-08T17:00:48.526Z,35.63
2023-04-08T17:02:54.447Z,35.46
2023-04-08T17:04:59.702Z,35.55
2023-04-08T17:07:04.903Z,35.52
2023-04-08T17:09:10.072Z,35.45
2023-04-08T17:11:15.733Z,35.43
2023-04-08T17:13:21.345Z,35.28
2023-04-08T17:15:26.413Z,35.39
2023-04-08T17:17:31.608Z,35.55
2023-04-08T17:19:36.682Z,35.4
2023-04-08T17:21:41.792Z,35.51
2023-04-08T17:23:46.863Z,35.55
2023-04-08T17:25:51.984Z,35.27
2023-04-08T17:27:57.018Z,35.39
2023-04-08T17:30:02.100Z,35.45
2023-04-08T17:32:07.417Z,35.41
2023-04-08T17:34:12.487Z,35.45
2023-04-08T17:36:17.848Z,35.36
2023-04-08T17:38:22.907Z,35.11
2023-04-08T17:40:27.975Z,35.17
2023-04-08T17:42:33.029Z,35.16
2023-04-08T17:44:38.137Z,35.26
2023-04-08T17:46:43.295Z,35.12
2023-04-08T17:48:48.354Z,35.22
2023-04-08T17:50:53.375Z,35.03
2023-04-08T17:52:58.410Z,35.42
2023-04-08T17:55:03.633Z,35.41
2023-04-08T17:57:08.678Z,35.19
2023-04-08T17:59:13.752Z,35.12
2023-04-08T18:01:19.004Z,35.05
2023-04-08T18:03:24.722Z,35.04
2023-04-08T18:05:29.973Z,34.99
2023-04-08T18:07:35.043Z,35.02
2023-04-08T18:09:40.067Z,34.93
2023-04-08T18:11:45.086Z,35.06
2023-04-08T18:13:50.750Z,34.93
2023-04-08T18:15:55.995Z,34.95
2023-04-08T18:18:01.279Z,35
2023-04-08T18:20:06.433Z,35.01
2023-04-08T18:22:11.496Z,34.96
2023-04-08T18:24:16.636Z,34.96
2023-04-08T18:26:21.666Z,34.88
2023-04-08T18:28:26.741Z,34.75
2023-04-08T18:30:31.898Z,34.82
2023-04-08T18:32:37.155Z,34.75
2023-04-08T18:34:42.262Z,34.77
2023-04-08T18:36:47.414Z,34.71
2023-04-08T18:38:52.484Z,35.11
2023-04-08T18:40:57.540Z,35.08
2023-04-08T18:43:02.683Z,35.24
2023-04-08T18:45:07.700Z,35.52
2023-04-08T18:47:12.770Z,35.36
2023-04-08T18:49:17.817Z,35.41
2023-04-08T18:51:22.868Z,35.01
2023-04-08T18:53:27.961Z,35.06
2023-04-08T18:55:33.097Z,35.33
2023-04-08T18:57:38.122Z,35.26
2023-04-08T18:59:43.146Z,35.33
2023-04-08T19:01:48.522Z,35.38
2023-04-08T19:03:55.234Z,35.42
2023-04-08T19:06:00.521Z,35.46
2023-04-08T19:08:05.604Z,35.31
2023-04-08T19:10:10.752Z,34.83
2023-04-08T19:12:15.922Z,35.28
2023-04-08T19:14:20.960Z,35.25
2023-04-08T19:16:26.209Z,34.67
2023-04-08T19:18:31.499Z,35.25
2023-04-08T19:20:36.526Z,35.22
2023-04-08T19:22:41.789Z,35.08
2023-04-08T19:24:46.896Z,34.99
2023-04-08T19:26:51.991Z,34.81
2023-04-08T19:28:57.010Z,35.11
2023-04-08T19:31:02.240Z,35.09
2023-04-08T19:33:07.380Z,34.68
2023-04-08T19:35:12.460Z,34.77
2023-04-08T19:37:17.525Z,34.6
2023-04-08T19:39:24.125Z,34.7
2023-04-08T19:41:31.003Z,34.54
2023-04-08T19:43:36.075Z,34.59
2023-04-08T19:45:41.245Z,34.55
2023-04-08T19:47:46.555Z,34.28
2023-04-08T19:49:51.583Z,34.32
2023-04-08T19:51:56.588Z,34.14
2023-04-08T19:54:01.665Z,34.18
2023-04-08T19:56:06.756Z,34.18
2023-04-08T19:58:11.840Z,34.05
2023-04-08T20:00:17.020Z,34.03
2023-04-08T20:02:22.613Z,34.24
2023-04-08T20:04:28.132Z,34.08
2023-04-08T20:06:33.352Z,34
2023-04-08T20:08:38.473Z,34.42
2023-04-08T20:10:43.537Z,34.35
2023-04-08T20:12:48.628Z,34.42
2023-04-08T20:14:53.765Z,34.59
2023-04-08T20:16:58.807Z,34.37
2023-04-08T20:19:03.946Z,34.02
2023-04-08T20:21:09.047Z,34.43
2023-04-08T20:23:14.246Z,33.96
2023-04-08T20:25:19.308Z,33.96
2023-04-08T20:27:24.357Z,34.25
2023-04-08T20:29:29.388Z,34.45
2023-04-08T20:31:34.797Z,34.36
2023-04-08T20:33:39.915Z,34.5
2023-04-08T20:35:45.216Z,34.24
2023-04-08T20:37:50.319Z,34.54
2023-04-08T20:39:55.374Z,34.5
2023-04-08T20:42:00.498Z,34.22
2023-04-08T20:44:05.583Z,34.08
2023-04-08T20:46:10.638Z,33.93
2023-04-08T20:48:15.694Z,32.87
2023-04-08T20:50:20.784Z,33.77
2023-04-08T20:52:25.813Z,33.88
2023-04-08T20:54:30.907Z,33.92
2023-04-08T20:56:35.952Z,33.77
2023-04-08T20:58:40.993Z,33.97
2023-04-08T21:00:46.196Z,34.04
2023-04-08T21:02:51.787Z,34.09
2023-04-08T21:04:56.950Z,34.07
2023-04-08T21:07:02.071Z,33.72
2023-04-08T21:09:07.106Z,33.76
2023-04-08T21:11:12.169Z,33.5
2023-04-08T21:13:17.223Z,33.49
2023-04-08T21:15:22.285Z,33.67
2023-04-08T21:17:27.498Z,34.03
2023-04-08T21:19:32.666Z,34.31
2023-04-08T21:21:37.744Z,34.49
2023-04-08T21:23:42.950Z,34.5
2023-04-08T21:25:48.042Z,34.65
2023-04-08T21:27:53.062Z,34.62
2023-04-08T21:29:58.212Z,34.58
2023-04-08T21:32:03.440Z,34.71
2023-04-08T21:34:08.720Z,34.96
2023-04-08T21:36:13.965Z,34.84
2023-04-08T21:38:19.164Z,34.95
2023-04-08T21:40:24.229Z,34.92
2023-04-08T21:42:29.310Z,34.37
2023-04-08T21:44:34.507Z,34.39
2023-04-08T21:46:39.727Z,34.79
2023-04-08T21:48:44.827Z,34.74
2023-04-08T21:50:50.092Z,34.8
2023-04-08T21:52:55.220Z,34.99
2023-04-08T21:55:00.249Z,34.72
2023-04-08T21:57:05.299Z,31.7
2023-04-08T21:59:10.335Z,30.54
2023-04-08T22:01:15.649Z,30.43
2023-04-08T22:03:21.130Z,29.7
2023-04-08T22:05:26.222Z,29.33
2023-04-08T22:07:31.238Z,29.06
2023-04-08T22:09:36.292Z,28.86
2023-04-08T22:11:41.410Z,28.6
2023-04-08T22:13:46.487Z,28.43
2023-04-08T22:15:51.569Z,28.31
2023-04-08T22:17:56.711Z,28.11
2023-04-08T22:20:01.874Z,28.03
2023-04-08T22:22:07.078Z,27.9
2023-04-08T22:24:12.137Z,27.79
2023-04-08T22:26:18.237Z,27.76
2023-04-08T22:28:23.259Z,27.72
2023-04-08T22:30:28.401Z,27.61
2023-04-08T22:32:33.892Z,27.51
2023-04-08T22:34:38.983Z,27.45
2023-04-08T22:36:44.100Z,27.41
2023-04-08T22:38:49.416Z,27.42
2023-04-08T22:40:54.650Z,27.37
2023-04-08T22:42:59.741Z,27.34
2023-04-08T22:45:04.823Z,27.3
2023-04-08T22:47:09.923Z,27.2
2023-04-08T22:49:14.999Z,27.27
2023-04-08T22:51:20.173Z,27.23
2023-04-08T22:53:25.279Z,27.21
2023-04-08T22:55:30.332Z,27.21
2023-04-08T22:57:35.367Z,27.11
2023-04-08T22:59:40.389Z,27.13
2023-04-08T23:01:45.858Z,27.13
2023-04-08T23:03:51.140Z,27.15
2023-04-08T23:05:56.201Z,27.16
2023-04-08T23:08:01.283Z,27.17
2023-04-08T23:10:06.452Z,27.16
2023-04-08T23:12:11.482Z,27.16
2023-04-08T23:14:16.505Z,27.17
2023-04-08T23:16:21.750Z,27.14
2023-04-08T23:18:26.830Z,27.13
2023-04-08T23:20:31.937Z,27.15
2023-04-08T23:22:36.983Z,27.12
2023-04-08T23:24:42.029Z,27.16
2023-04-08T23:26:47.124Z,27.16
2023-04-08T23:28:53.208Z,27.13
2023-04-08T23:30:58.672Z,27.11
2023-04-08T23:33:03.756Z,27.11
2023-04-08T23:35:08.783Z,27.07
2023-04-08T23:37:13.839Z,27.03
2023-04-08T23:39:18.852Z,27.02
2023-04-08T23:41:23.939Z,27
2023-04-08T23:43:28.965Z,26.94
2023-04-08T23:45:34.032Z,26.96
2023-04-08T23:47:39.363Z,26.93
2023-04-08T23:49:44.425Z,26.96
2023-04-08T23:51:49.523Z,26.88
2023-04-08T23:53:54.572Z,26.87
2023-04-08T23:55:59.648Z,26.93
2023-04-08T23:58:04.766Z,26.9
